This is the latest recevied weather packets stored in our database for station/object VU3IZK-13. If no packets are shown the sender has not sent any weather packets the latest 10 day(s).
| Time | Temp. | Humidity | Pressure | Rain* | Wind** | Luminosity | Snow |
|---|---|---|---|---|---|---|---|
| 1776984303 | 25.56° C | 61% | 0 hPa | 0 mm | - | - | - |
| 1776983446 | 25.56° C | 63% | 0 hPa | 0 mm | - | - | - |
| 1776982524 | 26.11° C | 62% | 0 hPa | 0 mm | - | - | - |
| 1776981622 | 26.11° C | 61% | 0 hPa | 0 mm | - | - | - |
| 1776979818 | 26.67° C | 57% | 0 hPa | 0 mm | - | - | - |
| 1776978918 | 27.22° C | 55% | 0 hPa | 0 mm | - | - | - |
| 1776978042 | 27.22° C | 54% | 0 hPa | 0 mm | - | - | - |
| 1776977142 | 27.22° C | 55% | 0 hPa | 0 mm | - | - | - |
| 1776976217 | 26.11° C | 59% | 0 hPa | 0 mm | - | - | - |
| 1776975317 | 26.11° C | 60% | 0 hPa | 0 mm | - | - | - |
| 1776974436 | 26.11° C | 59% | 0 hPa | 0 mm | - | - | - |
| 1776973514 | 25.56° C | 61% | 0 hPa | 0 mm | - | - | - |
| 1776972612 | 25.56° C | 65% | 0 hPa | 0 mm | - | - | - |
| 1776971732 | 25° C | 68% | 0 hPa | 0 mm | - | - | - |
| 1776970813 | 25° C | 73% | 0 hPa | 0 mm | - | - | - |
| 1776969913 | 25° C | 75% | 0 hPa | 0 mm | - | - | - |
| 1776969013 | 25.56° C | 74% | 0 hPa | 0 mm | - | - | - |
| 1776968136 | 25.56° C | 68% | 0 hPa | 0 mm | - | - | - |
| 1776967214 | 25.56° C | 72% | 0 hPa | 0 mm | - | - | - |
| 1776966307 | 25.56° C | 70% | 0 hPa | 0 mm | - | - | - |
| 1776965425 | 25.56° C | 71% | 0 hPa | 0 mm | - | - | - |
| 1776964503 | 25.56° C | 70% | 0 hPa | 0 mm | - | - | - |
| 1776963606 | 26.11° C | 66% | 0 hPa | 0 mm | - | - | - |
| 1776962727 | 26.67° C | 63% | 0 hPa | 0 mm | - | - | - |
| 1776961828 | 27.22° C | 62% | 0 hPa | 0 mm | - | - | - |
* Rain latest hour (hover to see other rain measurements)
** Current wind speed in m/s (hover to see current wind gust speed)